Vancouver Int'l Airport, British Columbia

Past 24 Hour Conditions

Date / Time
(PST)
Conditions Temp
(°C)
Humidity
(%)
Dew Point
(°C)
Wind
(km/h)
Pressure
(kPa)
Visibility
(km)
21 December 2014
00:00 Mainly Clear 6   97 6 W 9 99.7 24
20 December 2014
23:00 Mostly Cloudy 9   95 8 WNW 12 99.4 24
22:00 Light Rain 9   96 8 ENE 14 99.3 24
21:00 Mostly Cloudy 9   95 8 NE 18 99.3 24
20:00 Light Rain 8 97 8 ENE 12 99.3 19
19:00 Rain 8 97 7 ENE 20 99.3 6
18:00 Rain 7 97 7 E 18 99.4 6
17:00 Light Rain 7 96 7 E 22 99.5 10
16:00 Light Rain 7 95 6 E 25 99.5 13
15:00 Light Rain 7 94 6 E 21 99.6 10
14:00 Light Rain 7 95 6 E 23 99.7 10
13:00 Light Rain 7 92 6 E 22 99.8 10
12:00 Light Rain 8 85 6 E 18 100.0 24
11:00 Mostly Cloudy 8 80 5 ENE 18 100.1 24
10:00 Mostly Cloudy 7 85 5 ENE 26 100.2 24
9:00 Light Rain 6   91 5 ENE 30 gust 41 100.3 13
8:00 Light Rain 7 90 5 ENE 30 100.3 8
7:00 Light Rain 7 89 5 ENE 27 100.3 13
6:00 Light Rain 7 89 5 ENE 24 100.4 16
5:00 Light Rain 7 86 5 ENE 22 gust 34 100.4 19
4:00 Mostly Cloudy 8 82 5 E 17 100.5 24
3:00 Light Rain 7 85 5 E 29 100.7 24
2:00 Light Rain 8 84 5 E 29 100.7 24
1:00 Light Rain 7 86 5 E 22 100.9 24
00:00 Light Rain 8 83 5 E 22 101.0 24
N/A Not available
↑ Highest temperature
↓ Lowest temperature

If you require additional historical weather information, please visit Climate Data Online.

What we are doing

Date modified: